createdAt,value
2023-10-08T00:00:45.619Z,99006.03
2023-10-08T00:03:12.711Z,99005.44
2023-10-08T00:05:40.399Z,98990.50
2023-10-08T00:08:10.276Z,99002.28
2023-10-08T00:10:43.945Z,99011.16
2023-10-08T00:13:16.766Z,99007.06
2023-10-08T00:15:53.443Z,99014.91
2023-10-08T00:18:21.634Z,99005.22
2023-10-08T00:20:55.892Z,99021.44
2023-10-08T00:23:26.975Z,99024.47
2023-10-08T00:25:55.748Z,99026.94
2023-10-08T00:28:23.101Z,99022.47
2023-10-08T00:30:50.811Z,99027.97
2023-10-08T00:33:18.005Z,99029.38
2023-10-08T00:35:44.744Z,99015.50
2023-10-08T00:38:16.468Z,99018.41
2023-10-08T00:40:46.702Z,99015.47
2023-10-08T00:43:37.668Z,99010.69
2023-10-08T00:46:12.413Z,99018.63
2023-10-08T00:48:39.314Z,99018.84
2023-10-08T00:51:25.040Z,99014.06
2023-10-08T00:54:00.159Z,99004.38
2023-10-08T00:56:49.236Z,99013.25
2023-10-08T00:59:16.632Z,99009.25
2023-10-08T01:01:52.060Z,99004.47
2023-10-08T01:04:20.262Z,99011.13
2023-10-08T01:06:50.274Z,99006.13
2023-10-08T01:09:20.212Z,99002.28
2023-10-08T01:11:47.558Z,99002.28
2023-10-08T01:14:16.159Z,98996.66
2023-10-08T01:16:47.632Z,98995.91
2023-10-08T01:19:21.506Z,98998.97
2023-10-08T01:21:48.327Z,98996.97
2023-10-08T01:24:18.197Z,98995.59
2023-10-08T01:26:46.286Z,98990.47
2023-10-08T01:29:22.662Z,98971.00
2023-10-08T01:31:54.331Z,98986.56
2023-10-08T01:34:27.798Z,98987.56
2023-10-08T01:36:54.465Z,98990.66
2023-10-08T01:39:21.485Z,98991.25
2023-10-08T01:41:48.232Z,98998.31
2023-10-08T01:44:14.864Z,98996.59
2023-10-08T01:46:44.437Z,98991.31
2023-10-08T01:49:16.056Z,98997.88
2023-10-08T01:51:50.531Z,98984.47
2023-10-08T01:54:22.062Z,98982.84
2023-10-08T01:56:49.219Z,98983.88
2023-10-08T01:59:17.228Z,98985.81
2023-10-08T02:01:46.281Z,98982.19
2023-10-08T02:04:13.892Z,98985.03
2023-10-08T02:06:40.990Z,98990.94
2023-10-08T02:09:09.175Z,98990.13
2023-10-08T02:11:44.410Z,98994.47
2023-10-08T02:14:11.410Z,98983.47
2023-10-08T02:16:38.814Z,98974.44
2023-10-08T02:19:07.786Z,98990.78
2023-10-08T02:21:34.537Z,98988.25
2023-10-08T02:24:01.095Z,98983.31
2023-10-08T02:26:27.881Z,98979.63
2023-10-08T02:28:55.003Z,98973.41
2023-10-08T02:31:21.613Z,98972.59
2023-10-08T02:33:48.425Z,98978.13
2023-10-08T02:36:15.074Z,98979.38
2023-10-08T02:38:41.717Z,98990.22
2023-10-08T02:41:08.463Z,98986.66
2023-10-08T02:43:37.894Z,98978.97
2023-10-08T02:46:15.784Z,98970.50
2023-10-08T02:48:42.950Z,98976.97
2023-10-08T02:51:15.179Z,98983.66
2023-10-08T02:53:45.248Z,98984.84
2023-10-08T02:56:15.137Z,98986.84
2023-10-08T02:58:41.850Z,98978.38
2023-10-08T03:01:13.345Z,98985.34
2023-10-08T03:03:42.239Z,98945.41
2023-10-08T03:06:16.011Z,98985.50
2023-10-08T03:08:43.131Z,98986.75
2023-10-08T03:11:17.919Z,98991.34
2023-10-08T03:13:47.593Z,98985.97
2023-10-08T03:16:15.237Z,98985.16
2023-10-08T03:18:44.498Z,98970.91
2023-10-08T03:21:43.299Z,98987.16
2023-10-08T03:24:31.181Z,98979.34
2023-10-08T03:27:13.416Z,98978.50
2023-10-08T03:29:43.305Z,98966.59
2023-10-08T03:32:16.574Z,98975.47
2023-10-08T03:34:49.189Z,98977.94
2023-10-08T03:37:30.394Z,98968.22
2023-10-08T03:40:16.157Z,98976.72
2023-10-08T03:42:42.665Z,98964.09
2023-10-08T03:45:13.591Z,98974.97
2023-10-08T03:47:42.331Z,98967.44
2023-10-08T03:50:10.728Z,98964.41
2023-10-08T03:52:40.482Z,98971.38
2023-10-08T03:55:21.729Z,98962.78
2023-10-08T03:57:58.137Z,98973.94
2023-10-08T04:00:32.825Z,98967.03
2023-10-08T04:03:09.052Z,98963.91
2023-10-08T04:06:05.702Z,98961.16
2023-10-08T04:08:43.828Z,98964.97
2023-10-08T04:11:23.329Z,98968.31
2023-10-08T04:13:50.057Z,98978.47
2023-10-08T04:16:20.516Z,98975.19
2023-10-08T04:18:51.382Z,98983.22
2023-10-08T04:21:21.709Z,98973.47
2023-10-08T04:23:52.634Z,98981.41
2023-10-08T04:26:24.736Z,98983.69
2023-10-08T04:28:58.918Z,98978.59
2023-10-08T04:31:29.420Z,98981.41
2023-10-08T04:34:01.840Z,98983.00
2023-10-08T04:36:28.987Z,98991.59
2023-10-08T04:38:58.798Z,98993.88
2023-10-08T04:41:29.400Z,98993.03
2023-10-08T04:43:56.751Z,98996.16
2023-10-08T04:46:48.109Z,98993.38
2023-10-08T04:49:24.596Z,98987.16
2023-10-08T04:51:53.373Z,98985.09
2023-10-08T04:54:19.924Z,98987.34
2023-10-08T04:56:46.466Z,98988.09
2023-10-08T04:59:13.211Z,98982.44
2023-10-08T05:01:48.566Z,98974.41
2023-10-08T05:04:30.216Z,98976.50
2023-10-08T05:07:22.056Z,98983.66
2023-10-08T05:09:49.179Z,98980.03
2023-10-08T05:12:35.475Z,98980.84
2023-10-08T05:15:22.506Z,98971.31
2023-10-08T05:17:52.842Z,98971.38
2023-10-08T05:20:31.364Z,98969.69
2023-10-08T05:23:17.195Z,98970.78
2023-10-08T05:25:59.077Z,98988.44
2023-10-08T05:28:26.695Z,98973.97
2023-10-08T05:31:12.824Z,98980.22
2023-10-08T05:33:59.590Z,98978.84
2023-10-08T05:36:35.631Z,98981.38
2023-10-08T05:39:05.394Z,98978.41
2023-10-08T05:41:52.371Z,98985.97
2023-10-08T05:44:19.515Z,98998.38
2023-10-08T05:46:54.887Z,98984.66
2023-10-08T05:49:40.187Z,99007.44
2023-10-08T05:52:06.860Z,99017.91
2023-10-08T05:54:34.178Z,99023.31
2023-10-08T05:57:25.992Z,99021.06
2023-10-08T05:59:58.366Z,99023.28
2023-10-08T06:02:49.644Z,99023.41
2023-10-08T06:05:27.408Z,99029.56
2023-10-08T06:07:55.263Z,99022.50
2023-10-08T06:10:32.096Z,99031.91
2023-10-08T06:13:05.552Z,99029.88
2023-10-08T06:15:46.040Z,99039.69
2023-10-08T06:18:14.377Z,99019.94
2023-10-08T06:20:44.346Z,99033.94
2023-10-08T06:23:19.213Z,99029.56
2023-10-08T06:25:46.470Z,99030.97
2023-10-08T06:28:20.762Z,99028.41
2023-10-08T06:30:49.454Z,99028.25
2023-10-08T06:33:20.164Z,99026.38
2023-10-08T06:36:05.698Z,99043.31
2023-10-08T06:38:33.385Z,99034.91
2023-10-08T06:41:11.514Z,99034.31
2023-10-08T06:43:38.658Z,99038.28
2023-10-08T06:46:08.648Z,99033.44
2023-10-08T06:48:36.011Z,99033.50
2023-10-08T06:51:13.887Z,99043.19
2023-10-08T06:53:47.141Z,99051.63
2023-10-08T06:56:16.167Z,99053.09
2023-10-08T06:58:49.108Z,99044.47
2023-10-08T07:01:39.668Z,99048.75
2023-10-08T07:04:07.843Z,99051.94
2023-10-08T07:06:38.385Z,99051.41
2023-10-08T07:09:06.333Z,99045.75
2023-10-08T07:11:36.046Z,99044.94
2023-10-08T07:14:04.277Z,99028.88
2023-10-08T07:16:34.217Z,99055.47
2023-10-08T07:19:04.540Z,99052.28
2023-10-08T07:21:39.836Z,99065.38
2023-10-08T07:24:16.179Z,99063.28
2023-10-08T07:26:47.400Z,99072.16
2023-10-08T07:29:18.243Z,99064.28
2023-10-08T07:31:49.889Z,99081.03
2023-10-08T07:34:26.572Z,99056.41
2023-10-08T07:36:55.901Z,99074.94
2023-10-08T07:39:26.310Z,99038.88
2023-10-08T07:41:57.570Z,99069.75
2023-10-08T07:44:24.555Z,99071.72
2023-10-08T07:46:52.398Z,99069.56
2023-10-08T07:49:19.377Z,99086.22
2023-10-08T07:51:51.760Z,99096.69
2023-10-08T07:54:25.770Z,99089.69
2023-10-08T07:56:52.890Z,99086.81
2023-10-08T07:59:19.605Z,99099.38
2023-10-08T08:01:46.112Z,99101.41
2023-10-08T08:04:23.881Z,99104.75
2023-10-08T08:06:52.357Z,99095.69
2023-10-08T08:09:20.810Z,99103.13
2023-10-08T08:11:47.830Z,99107.78
2023-10-08T08:14:17.902Z,99097.72
2023-10-08T08:16:49.257Z,99103.38
2023-10-08T08:19:17.041Z,99098.56
2023-10-08T08:21:46.347Z,99104.75
2023-10-08T08:24:14.561Z,99097.91
2023-10-08T08:26:45.763Z,99098.72
2023-10-08T08:29:16.313Z,99103.44
2023-10-08T08:31:47.350Z,99101.63
2023-10-08T08:34:20.614Z,99103.50
2023-10-08T08:36:50.233Z,99096.22
2023-10-08T08:39:29.603Z,99081.63
2023-10-08T08:42:00.309Z,99100.16
2023-10-08T08:44:33.083Z,99109.16
2023-10-08T08:47:05.537Z,99106.91
2023-10-08T08:49:35.668Z,99116.69
2023-10-08T08:52:02.194Z,99107.69
2023-10-08T08:54:31.543Z,99117.63
2023-10-08T08:57:03.224Z,99118.66
2023-10-08T08:59:32.736Z,99117.06
2023-10-08T09:02:05.157Z,99126.91
2023-10-08T09:04:32.660Z,99123.50
2023-10-08T09:07:24.521Z,99122.31
2023-10-08T09:09:51.179Z,99121.22
2023-10-08T09:12:18.581Z,99116.09
2023-10-08T09:14:49.166Z,99126.09
2023-10-08T09:17:18.126Z,99118.44
2023-10-08T09:19:44.619Z,99128.69
2023-10-08T09:22:13.015Z,99125.97
2023-10-08T09:24:41.288Z,99126.69
2023-10-08T09:27:09.492Z,99130.03
2023-10-08T09:29:43.419Z,99115.97
2023-10-08T09:32:12.789Z,99118.69
2023-10-08T09:34:39.482Z,99114.34
2023-10-08T09:37:06.076Z,99097.50
2023-10-08T09:39:35.071Z,99093.66
2023-10-08T09:42:08.368Z,99109.63
2023-10-08T09:44:35.378Z,99090.88
2023-10-08T09:47:11.473Z,99093.81
2023-10-08T09:49:49.786Z,99107.81
2023-10-08T09:52:19.288Z,99101.84
2023-10-08T09:54:54.938Z,99087.69
2023-10-08T09:57:25.165Z,99100.19
2023-10-08T09:59:51.751Z,99101.22
2023-10-08T10:02:19.599Z,99099.28
2023-10-08T10:04:46.117Z,99098.16
2023-10-08T10:07:15.394Z,99104.47
2023-10-08T10:09:50.959Z,99085.19
2023-10-08T10:12:26.649Z,99098.28
2023-10-08T10:14:57.726Z,99096.97
2023-10-08T10:17:43.328Z,99100.00
2023-10-08T10:20:15.456Z,99103.03
2023-10-08T10:22:44.709Z,99089.50
2023-10-08T10:25:21.356Z,99063.78
2023-10-08T10:27:56.865Z,99092.63
2023-10-08T10:30:24.939Z,99082.31
2023-10-08T10:32:56.254Z,99083.69
2023-10-08T10:35:24.593Z,99085.03
2023-10-08T10:37:56.419Z,99088.84
2023-10-08T10:40:40.253Z,99093.22
2023-10-08T10:43:10.677Z,99089.38
2023-10-08T10:45:37.967Z,99085.56
2023-10-08T10:48:20.334Z,99085.00
2023-10-08T10:51:06.909Z,99077.59
2023-10-08T10:53:35.023Z,99071.38
2023-10-08T10:56:10.439Z,99078.94
2023-10-08T10:58:40.996Z,99073.75
2023-10-08T11:01:24.407Z,99077.81
2023-10-08T11:03:53.003Z,99071.81
2023-10-08T11:06:24.561Z,99074.25
2023-10-08T11:08:53.593Z,99078.53
2023-10-08T11:11:30.497Z,99077.66
2023-10-08T11:14:01.843Z,99068.16
2023-10-08T11:16:32.597Z,99075.41
2023-10-08T11:19:02.644Z,99066.19
2023-10-08T11:21:34.980Z,99069.69
2023-10-08T11:24:09.696Z,99069.72
2023-10-08T11:26:40.333Z,99061.91
2023-10-08T11:29:15.239Z,99064.09
2023-10-08T11:31:43.134Z,99056.78
2023-10-08T11:34:14.356Z,99057.34
2023-10-08T11:36:54.113Z,99063.06
2023-10-08T11:39:23.797Z,99053.75
2023-10-08T11:41:57.153Z,99053.22
2023-10-08T11:44:24.905Z,99051.06
2023-10-08T11:46:52.993Z,99047.50
2023-10-08T11:49:20.293Z,99054.03
2023-10-08T11:51:48.525Z,99051.34
2023-10-08T11:54:15.806Z,99051.13
2023-10-08T11:56:42.794Z,99052.16
2023-10-08T11:59:13.122Z,99059.22
2023-10-08T12:01:43.646Z,99051.91
2023-10-08T12:04:18.149Z,99045.09
2023-10-08T12:06:48.148Z,99050.56
2023-10-08T12:09:15.730Z,99044.59
2023-10-08T12:11:43.711Z,99046.19
2023-10-08T12:14:12.015Z,99050.50
2023-10-08T12:16:40.885Z,99052.91
2023-10-08T12:19:16.691Z,99048.34
2023-10-08T12:21:47.581Z,99046.13
2023-10-08T12:24:14.995Z,99039.31
2023-10-08T12:26:48.371Z,99008.97
2023-10-08T12:29:15.555Z,99034.34
2023-10-08T12:31:42.407Z,99043.06
2023-10-08T12:34:12.782Z,99037.63
2023-10-08T12:36:39.578Z,99042.75
2023-10-08T12:39:15.531Z,99047.69
2023-10-08T12:41:46.217Z,99056.34
2023-10-08T12:44:14.098Z,99007.63
2023-10-08T12:46:44.966Z,99047.69
2023-10-08T12:49:11.580Z,99040.31
2023-10-08T12:51:42.349Z,99038.38
2023-10-08T12:54:12.392Z,99043.22
2023-10-08T12:56:45.783Z,99044.84
2023-10-08T12:59:21.485Z,99037.78
2023-10-08T13:01:52.499Z,99029.41
2023-10-08T13:04:27.135Z,99033.47
2023-10-08T13:06:58.504Z,99022.09
2023-10-08T13:09:26.190Z,99022.63
2023-10-08T13:11:53.136Z,99024.22
2023-10-08T13:14:19.734Z,99022.78
2023-10-08T13:16:46.728Z,99023.34
2023-10-08T13:19:13.600Z,99028.19
2023-10-08T13:21:40.191Z,99022.44
2023-10-08T13:24:10.016Z,99023.22
2023-10-08T13:26:39.939Z,99022.75
2023-10-08T13:29:07.106Z,99021.97
2023-10-08T13:31:37.515Z,99021.41
2023-10-08T13:34:09.466Z,99024.63
2023-10-08T13:36:38.923Z,99004.78
2023-10-08T13:39:19.087Z,99018.25
2023-10-08T13:41:53.906Z,99001.38
2023-10-08T13:44:29.927Z,99006.25
2023-10-08T13:46:59.344Z,99006.78
2023-10-08T13:49:27.549Z,99003.88
2023-10-08T13:51:57.736Z,99000.91
2023-10-08T13:54:30.025Z,99000.34
2023-10-08T13:56:59.364Z,99001.41
2023-10-08T13:59:26.618Z,98996.03
2023-10-08T14:01:53.911Z,98993.81
2023-10-08T14:04:21.670Z,98984.00
2023-10-08T14:06:53.155Z,98993.50
2023-10-08T14:09:32.794Z,98985.34
2023-10-08T14:12:00.691Z,98984.31
2023-10-08T14:14:31.078Z,98991.69
2023-10-08T14:17:09.380Z,98990.63
2023-10-08T14:19:47.856Z,98988.72
2023-10-08T14:22:15.734Z,98986.56
2023-10-08T14:24:45.594Z,98980.03
2023-10-08T14:27:12.875Z,98965.56
2023-10-08T14:29:51.146Z,98978.69
2023-10-08T14:32:18.044Z,98977.38
2023-10-08T14:34:44.516Z,98975.72
2023-10-08T14:37:29.995Z,98979.31
2023-10-08T14:40:15.344Z,98973.06
2023-10-08T14:42:59.049Z,98973.38
2023-10-08T14:45:28.528Z,98963.34
2023-10-08T14:47:56.443Z,98953.59
2023-10-08T14:50:24.532Z,98964.38
2023-10-08T14:52:51.349Z,98960.56
2023-10-08T14:55:17.858Z,98955.16
2023-10-08T14:57:44.521Z,98955.22
2023-10-08T15:00:14.893Z,98954.72
2023-10-08T15:02:41.553Z,98951.97
2023-10-08T15:05:08.698Z,98953.31
2023-10-08T15:07:35.889Z,98957.94
2023-10-08T15:10:02.353Z,98952.03
2023-10-08T15:12:29.111Z,98929.84
2023-10-08T15:14:55.824Z,98942.28
2023-10-08T15:17:22.933Z,98957.53
2023-10-08T15:19:49.469Z,98947.31
2023-10-08T15:22:16.017Z,98952.44
2023-10-08T15:24:44.464Z,98946.47
2023-10-08T15:27:11.660Z,98945.66
2023-10-08T15:29:38.619Z,98944.13
2023-10-08T15:32:06.651Z,98936.00
2023-10-08T15:34:37.713Z,98941.44
2023-10-08T15:37:06.091Z,98933.31
2023-10-08T15:39:32.631Z,98940.13
2023-10-08T15:41:59.390Z,98935.00
2023-10-08T15:44:26.004Z,98944.25
2023-10-08T15:46:52.513Z,98939.06
2023-10-08T15:49:21.960Z,98944.81
2023-10-08T15:51:49.350Z,98949.44
2023-10-08T15:54:21.642Z,98948.66
2023-10-08T15:56:49.473Z,98943.25
2023-10-08T15:59:18.094Z,98945.97
2023-10-08T16:01:47.629Z,98943.03
2023-10-08T16:04:14.374Z,98941.41
2023-10-08T16:06:42.129Z,98942.28
2023-10-08T16:09:08.659Z,98941.75
2023-10-08T16:11:37.432Z,98935.25
2023-10-08T16:14:04.043Z,98947.22
2023-10-08T16:16:30.592Z,98942.88
2023-10-08T16:18:57.159Z,98931.47
2023-10-08T16:21:24.770Z,98935.84
2023-10-08T16:23:51.565Z,98935.31
2023-10-08T16:26:18.718Z,98938.59
2023-10-08T16:28:45.424Z,98934.78
2023-10-08T16:31:12.211Z,98932.91
2023-10-08T16:33:38.928Z,98935.63
2023-10-08T16:36:10.749Z,98932.91
2023-10-08T16:38:38.537Z,98934.81
2023-10-08T16:41:06.371Z,98938.88
2023-10-08T16:43:33.046Z,98931.56
2023-10-08T16:46:06.002Z,98934.28
2023-10-08T16:48:33.445Z,98935.34
2023-10-08T16:51:02.796Z,98937.25
2023-10-08T16:53:30.183Z,98934.78
2023-10-08T16:55:56.864Z,98920.13
2023-10-08T16:58:23.540Z,98938.03
2023-10-08T17:00:52.032Z,98935.53
2023-10-08T17:03:23.013Z,98948.38
2023-10-08T17:05:49.973Z,98946.66
2023-10-08T17:08:18.696Z,98945.00
2023-10-08T17:10:45.604Z,98937.69
2023-10-08T17:13:13.604Z,98920.88
2023-10-08T17:15:43.372Z,98933.34
2023-10-08T17:18:12.182Z,98937.66
2023-10-08T17:20:40.387Z,98946.56
2023-10-08T17:23:07.767Z,98934.34
2023-10-08T17:25:35.066Z,98944.97
2023-10-08T17:28:01.549Z,98953.38
2023-10-08T17:30:28.185Z,98949.88
2023-10-08T17:32:54.759Z,98953.41
2023-10-08T17:35:21.372Z,98952.34
2023-10-08T17:37:48.237Z,98952.84
2023-10-08T17:40:15.411Z,98950.66
2023-10-08T17:42:45.009Z,98949.00
2023-10-08T17:45:24.096Z,98956.44
2023-10-08T17:47:53.880Z,98960.78
2023-10-08T17:50:21.555Z,98957.75
2023-10-08T17:52:50.153Z,98957.94
2023-10-08T17:55:18.813Z,98965.06
2023-10-08T17:57:47.042Z,98962.81
2023-10-08T18:00:18.343Z,98969.38
2023-10-08T18:02:45.404Z,98966.88
2023-10-08T18:05:16.725Z,98969.91
2023-10-08T18:07:47.166Z,98959.66
2023-10-08T18:10:15.616Z,98960.44
2023-10-08T18:12:42.439Z,98961.22
2023-10-08T18:15:16.860Z,98957.97
2023-10-08T18:17:45.484Z,98964.13
2023-10-08T18:20:14.005Z,98961.63
2023-10-08T18:22:40.714Z,98961.81
2023-10-08T18:25:12.609Z,98945.06
2023-10-08T18:27:39.887Z,98958.84
2023-10-08T18:30:07.238Z,98952.81
2023-10-08T18:32:35.632Z,98954.47
2023-10-08T18:35:03.524Z,98953.16
2023-10-08T18:37:32.480Z,98951.19
2023-10-08T18:39:59.657Z,98949.50
2023-10-08T18:42:28.702Z,98949.44
2023-10-08T18:44:56.058Z,98946.84
2023-10-08T18:47:28.701Z,98948.31
2023-10-08T18:50:04.385Z,98945.56
2023-10-08T18:52:39.323Z,98945.72
2023-10-08T18:55:07.139Z,98947.81
2023-10-08T18:57:39.050Z,98922.03
2023-10-08T19:00:10.889Z,98936.72
2023-10-08T19:02:39.513Z,98937.25
2023-10-08T19:05:06.999Z,98931.94
2023-10-08T19:07:34.976Z,98929.16
2023-10-08T19:10:10.556Z,98924.56
2023-10-08T19:12:37.767Z,98929.22
2023-10-08T19:15:07.022Z,98922.03
2023-10-08T19:17:35.033Z,98926.41
2023-10-08T19:20:01.778Z,98928.44
2023-10-08T19:22:28.460Z,98927.47
2023-10-08T19:24:56.011Z,98927.38
2023-10-08T19:27:25.131Z,98922.94
2023-10-08T19:29:51.858Z,98916.72
2023-10-08T19:32:18.403Z,98922.53
2023-10-08T19:34:45.720Z,98925.47
2023-10-08T19:37:12.391Z,98896.38
2023-10-08T19:39:40.015Z,98921.28
2023-10-08T19:42:07.114Z,98919.53
2023-10-08T19:44:33.736Z,98922.94
2023-10-08T19:47:01.921Z,98925.72
2023-10-08T19:49:28.680Z,98920.03
2023-10-08T19:51:55.231Z,98926.19
2023-10-08T19:54:22.532Z,98924.22
2023-10-08T19:56:49.096Z,98915.09
2023-10-08T19:59:17.454Z,98916.84
2023-10-08T20:01:43.989Z,98906.94
2023-10-08T20:04:10.732Z,98910.94
2023-10-08T20:06:38.262Z,98912.81
2023-10-08T20:09:07.804Z,98912.69
2023-10-08T20:11:34.951Z,98911.44
2023-10-08T20:14:02.079Z,98906.66
2023-10-08T20:16:31.135Z,98914.84
2023-10-08T20:18:57.921Z,98883.91
2023-10-08T20:21:24.634Z,98907.94
2023-10-08T20:23:51.883Z,98902.22
2023-10-08T20:26:22.034Z,98910.06
2023-10-08T20:28:49.647Z,98908.78
2023-10-08T20:31:16.302Z,98903.97
2023-10-08T20:33:44.729Z,98907.25
2023-10-08T20:36:11.753Z,98902.94
2023-10-08T20:38:38.391Z,98904.09
2023-10-08T20:41:07.623Z,98908.53
2023-10-08T20:43:34.389Z,98902.69
2023-10-08T20:46:01.783Z,98910.63
2023-10-08T20:48:28.967Z,98900.25
2023-10-08T20:50:58.114Z,98897.56
2023-10-08T20:53:25.906Z,98890.19
2023-10-08T20:55:53.578Z,98898.75
2023-10-08T20:58:20.133Z,98890.78
2023-10-08T21:00:47.883Z,98896.47
2023-10-08T21:03:15.216Z,98889.97
2023-10-08T21:05:43.897Z,98883.16
2023-10-08T21:08:12.621Z,98887.00
2023-10-08T21:10:59.733Z,98884.88
2023-10-08T21:13:27.736Z,98889.31
2023-10-08T21:15:54.867Z,98889.75
2023-10-08T21:18:24.247Z,98889.28
2023-10-08T21:20:51.398Z,98881.94
2023-10-08T21:23:18.042Z,98888.00
2023-10-08T21:25:46.407Z,98885.47
2023-10-08T21:28:14.456Z,98892.31
2023-10-08T21:30:41.702Z,98884.88
2023-10-08T21:33:10.240Z,98884.25
2023-10-08T21:35:42.633Z,98883.22
2023-10-08T21:38:11.516Z,98879.25
2023-10-08T21:40:39.879Z,98880.97
2023-10-08T21:43:08.461Z,98877.72
2023-10-08T21:45:36.092Z,98877.66
2023-10-08T21:48:02.834Z,98877.81
2023-10-08T21:50:29.739Z,98873.13
2023-10-08T21:52:56.258Z,98873.41
2023-10-08T21:55:24.832Z,98852.59
2023-10-08T21:57:51.661Z,98876.50
2023-10-08T22:00:25.249Z,98868.38
2023-10-08T22:02:57.742Z,98880.34
2023-10-08T22:05:25.678Z,98870.16
2023-10-08T22:07:52.348Z,98876.28
2023-10-08T22:10:21.957Z,98875.41
2023-10-08T22:12:50.623Z,98874.28
2023-10-08T22:15:17.546Z,98866.44
2023-10-08T22:17:45.590Z,98866.78
2023-10-08T22:20:36.929Z,98855.06
2023-10-08T22:23:16.096Z,98856.72
2023-10-08T22:25:48.262Z,98849.25
2023-10-08T22:28:21.612Z,98844.78
2023-10-08T22:30:53.156Z,98843.09
2023-10-08T22:33:26.504Z,98834.47
2023-10-08T22:35:58.593Z,98824.72
2023-10-08T22:38:30.245Z,98833.41
2023-10-08T22:41:00.282Z,98839.28
2023-10-08T22:43:36.932Z,98835.06
2023-10-08T22:46:04.860Z,98828.41
2023-10-08T22:48:44.233Z,98819.47
2023-10-08T22:51:13.865Z,98827.66
2023-10-08T22:53:42.983Z,98821.88
2023-10-08T22:56:11.757Z,98814.28
2023-10-08T22:58:40.215Z,98815.16
2023-10-08T23:01:14.884Z,98826.78
2023-10-08T23:03:47.563Z,98818.63
2023-10-08T23:06:16.340Z,98810.25
2023-10-08T23:08:43.880Z,98825.84
2023-10-08T23:11:13.108Z,98819.84
2023-10-08T23:13:43.837Z,98821.41
2023-10-08T23:16:11.718Z,98816.66
2023-10-08T23:18:41.508Z,98811.44
2023-10-08T23:21:08.761Z,98816.38
2023-10-08T23:23:39.476Z,98807.22
2023-10-08T23:26:14.637Z,98817.63
2023-10-08T23:28:41.610Z,98811.06
2023-10-08T23:31:11.819Z,98794.41
2023-10-08T23:33:48.215Z,98811.59
2023-10-08T23:36:16.689Z,98812.19
2023-10-08T23:38:47.695Z,98803.13
2023-10-08T23:41:17.868Z,98807.75
2023-10-08T23:43:55.078Z,98793.84
2023-10-08T23:46:34.310Z,98787.13
2023-10-08T23:49:18.685Z,98793.28
2023-10-08T23:51:52.804Z,98788.69
2023-10-08T23:54:26.660Z,98780.97
2023-10-08T23:56:59.227Z,98788.56
2023-10-08T23:59:40.896Z,98787.34
